Time;durP1;ratioP1;P1;durP2;ratioP2;P2;SDS_P1;SDS_P2;PMS_P1;PMS_P2;Temp;Humidity;BMP_temperature;BMP_pressure;BME280_temperature;BME280_humidity;BME280_pressure;Samples;Min_cycle;Max_cycle;Signal;HPM_P1;HPM_P2
2022/01/11 00:04:16;;;;;;;15.75;7.68;;;1.30;99.90;;;;;;10291168;28;83448;-51
2022/01/11 00:09:23;;;;;;;19.30;7.72;;;1.20;99.90;;;;;;10287620;28;84183;-51
2022/01/11 00:14:24;;;;;;;15.07;7.78;;;1.20;99.90;;;;;;10291169;28;84084;-50
2022/01/11 00:19:25;;;;;;;16.30;8.38;;;1.10;99.90;;;;;;10289505;28;84228;-50
2022/01/11 00:24:30;;;;;;;12.95;7.50;;;1.00;99.90;;;;;;10289883;28;83684;-52
2022/01/11 00:29:33;;;;;;;16.33;8.43;;;1.00;99.90;;;;;;10311276;22;84166;-51
2022/01/11 00:34:49;;;;;;;15.63;7.95;;;0.90;99.90;;;;;;10306313;28;85051;-46
2022/01/11 00:39:52;;;;;;;14.88;7.20;;;0.90;99.90;;;;;;10289683;28;84859;-47
2022/01/11 00:44:53;;;;;;;15.15;8.43;;;0.90;99.90;;;;;;10272764;28;85263;-47
2022/01/11 00:49:54;;;;;;;11.00;8.00;;;0.90;99.90;;;;;;10287133;28;85372;-48
2022/01/11 00:54:55;;;;;;;18.98;9.93;;;0.90;99.90;;;;;;10288874;28;84345;-47
2022/01/11 00:59:56;;;;;;;22.05;8.90;;;0.80;99.90;;;;;;10286596;28;84187;-46
2022/01/11 01:04:57;;;;;;;20.30;9.07;;;0.80;99.90;;;;;;10288195;28;84027;-46
2022/01/11 01:10:14;;;;;;;15.05;8.00;;;0.70;99.90;;;;;;10286900;28;85182;-48
2022/01/11 01:15:18;;;;;;;21.73;10.50;;;0.70;99.90;;;;;;10286470;28;84927;-46
2022/01/11 01:20:21;;;;;;;15.77;8.57;;;0.70;99.90;;;;;;10284685;28;85587;-50
2022/01/11 01:25:23;;;;;;;18.52;9.15;;;0.70;99.90;;;;;;10285628;28;84306;-47
2022/01/11 01:30:24;;;;;;;15.93;7.80;;;0.60;99.90;;;;;;10286136;28;84241;-44
2022/01/11 01:35:29;;;;;;;23.13;9.65;;;0.50;99.90;;;;;;10286262;28;85210;-47
2022/01/11 01:40:36;;;;;;;17.90;9.30;;;0.50;99.90;;;;;;10269588;28;86374;-48
2022/01/11 01:45:38;;;;;;;13.02;7.13;;;0.40;99.90;;;;;;10285313;28;86418;-45
2022/01/11 01:50:39;;;;;;;15.30;8.32;;;0.40;99.90;;;;;;10285608;28;84029;-47
2022/01/11 01:55:41;;;;;;;19.65;9.57;;;0.40;99.90;;;;;;10284695;28;84201;-46
2022/01/11 02:00:50;;;;;;;16.17;7.70;;;0.40;99.90;;;;;;10285279;28;85199;-45
2022/01/11 02:05:51;;;;;;;15.35;7.93;;;0.30;99.90;;;;;;10286296;28;83631;-50
2022/01/11 02:10:53;;;;;;;14.02;7.82;;;0.20;99.90;;;;;;10287038;28;83949;-46
2022/01/11 02:15:54;;;;;;;17.20;8.35;;;0.20;99.90;;;;;;10285919;28;83696;-47
2022/01/11 02:20:58;;;;;;;14.60;7.30;;;0.10;99.90;;;;;;10285021;28;86076;-45
2022/01/11 02:26:04;;;;;;;18.70;8.00;;;0.00;99.90;;;;;;10284575;28;85248;-46
2022/01/11 02:31:12;;;;;;;16.90;7.60;;;-0.10;99.90;;;;;;10283227;28;85043;-46
2022/01/11 02:36:20;;;;;;;15.60;7.18;;;-0.30;99.90;;;;;;10286511;28;86067;-47
2022/01/11 02:41:22;;;;;;;19.55;7.13;;;-0.40;99.90;;;;;;10291300;28;85999;-47
2022/01/11 02:46:23;;;;;;;20.70;8.38;;;-0.30;99.90;;;;;;10292382;28;83796;-49
2022/01/11 02:51:27;;;;;;;15.45;7.47;;;-0.20;99.90;;;;;;10291208;28;86136;-48
2022/01/11 02:56:32;;;;;;;13.85;7.00;;;-0.20;99.90;;;;;;10291174;28;85374;-46
2022/01/11 03:01:34;;;;;;;19.55;7.65;;;-0.10;99.90;;;;;;10291093;28;85979;-45
2022/01/11 03:06:36;;;;;;;12.27;6.50;;;-0.20;99.90;;;;;;10290202;28;85284;-45
2022/01/11 03:11:36;;;;;;;13.45;6.75;;;-0.20;99.90;;;;;;10292627;28;83977;-48
2022/01/11 03:16:37;;;;;;;14.35;8.07;;;-0.20;99.90;;;;;;10290137;28;85208;-46
2022/01/11 03:21:38;;;;;;;14.80;6.88;;;-0.20;99.90;;;;;;10291027;28;85203;-46
2022/01/11 03:26:40;;;;;;;18.98;7.95;;;-0.20;99.90;;;;;;10289492;28;86070;-48
2022/01/11 03:31:40;;;;;;;17.30;8.45;;;-0.20;99.90;;;;;;10290424;28;85122;-46
2022/01/11 03:36:42;;;;;;;16.42;8.18;;;-0.20;99.90;;;;;;10289972;28;84356;-49
2022/01/11 03:41:42;;;;;;;14.45;7.10;;;-0.20;99.90;;;;;;10286403;28;84049;-46
2022/01/11 03:46:44;;;;;;;19.45;9.60;;;-0.30;99.90;;;;;;10288220;28;85831;-46
2022/01/11 03:51:49;;;;;;;15.38;6.88;;;-0.20;99.90;;;;;;10289543;28;85246;-45
2022/01/11 03:56:50;;;;;;;18.58;8.43;;;-0.20;99.90;;;;;;10289080;28;85235;-47
2022/01/11 04:01:56;;;;;;;16.25;8.40;;;-0.20;99.90;;;;;;10289329;28;85072;-48
2022/01/11 04:06:57;;;;;;;28.67;8.77;;;-0.20;99.90;;;;;;10289707;28;86026;-46
2022/01/11 04:11:58;;;;;;;13.30;7.55;;;-0.30;99.90;;;;;;10290654;28;86061;-49
2022/01/11 04:17:00;;;;;;;13.85;7.55;;;-0.20;99.90;;;;;;10296381;28;84047;-46
2022/01/11 04:22:02;;;;;;;11.48;6.72;;;-0.30;99.90;;;;;;10294491;28;86268;-46
2022/01/11 04:27:03;;;;;;;14.30;6.57;;;-0.40;99.90;;;;;;10290261;28;85218;-45
2022/01/11 04:32:06;;;;;;;13.63;7.15;;;-0.40;99.90;;;;;;10289295;28;83812;-45
2022/01/11 04:37:08;;;;;;;17.63;8.05;;;-0.40;99.90;;;;;;10287699;28;85334;-46
2022/01/11 04:42:10;;;;;;;20.30;8.18;;;-0.40;99.90;;;;;;10288299;28;86055;-46
2022/01/11 04:47:11;;;;;;;14.32;6.80;;;-0.50;99.90;;;;;;10287168;28;86261;-48
2022/01/11 04:52:12;;;;;;;18.95;8.65;;;-0.30;99.90;;;;;;10287610;28;85073;-46
2022/01/11 04:57:13;;;;;;;13.52;7.70;;;-0.40;99.90;;;;;;10287145;28;84891;-49
2022/01/11 05:02:14;;;;;;;14.23;7.70;;;-0.40;99.90;;;;;;10288953;28;83617;-48
2022/01/11 05:07:16;;;;;;;14.90;6.40;;;-0.40;99.90;;;;;;10286935;28;85903;-49
2022/01/11 05:12:17;;;;;;;13.90;7.25;;;-0.50;99.90;;;;;;10267468;28;84517;-50
2022/01/11 05:17:17;;;;;;;14.65;7.75;;;-0.50;99.90;;;;;;10285418;28;85338;-47
2022/01/11 05:22:18;;;;;;;16.02;8.40;;;-0.40;99.90;;;;;;10285818;28;86153;-46
2022/01/11 05:27:19;;;;;;;20.20;8.38;;;-0.40;99.90;;;;;;10284820;28;86927;-52
2022/01/11 05:32:20;;;;;;;16.60;8.40;;;-0.50;99.90;;;;;;10286267;28;84469;-60
2022/01/11 05:37:21;;;;;;;16.13;8.88;;;-0.50;99.90;;;;;;10314548;28;84775;-46
2022/01/11 05:42:24;;;;;;;41.90;16.48;;;-0.50;99.90;;;;;;10326692;28;86002;-47
2022/01/11 05:47:25;;;;;;;29.85;12.38;;;-0.50;99.90;;;;;;10327088;28;86483;-49
2022/01/11 05:52:26;;;;;;;29.63;11.85;;;-0.50;99.90;;;;;;10314313;28;86828;-48
2022/01/11 05:57:26;;;;;;;28.15;12.02;;;-0.60;99.90;;;;;;10282828;28;86501;-48
2022/01/11 06:02:27;;;;;;;21.00;10.85;;;-0.60;99.90;;;;;;10279504;28;84782;-52
2022/01/11 06:07:28;;;;;;;21.70;10.43;;;-0.70;99.90;;;;;;10278083;28;86772;-47
2022/01/11 06:12:29;;;;;;;18.15;10.13;;;-0.70;99.90;;;;;;10292846;28;87037;-48
2022/01/11 06:17:29;;;;;;;22.00;8.27;;;-0.70;99.90;;;;;;10295631;28;84270;-47
2022/01/11 06:22:30;;;;;;;17.80;8.93;;;-0.90;99.90;;;;;;10288627;28;86798;-55
2022/01/11 06:27:32;;;;;;;18.23;7.43;;;-0.90;99.90;;;;;;10298162;28;84968;-53
2022/01/11 06:32:33;;;;;;;16.27;7.65;;;-0.90;99.90;;;;;;10309332;22;87343;-60
2022/01/11 06:37:35;;;;;;;17.02;7.40;;;-0.80;99.90;;;;;;10272899;28;85688;-50
2022/01/11 06:42:36;;;;;;;16.77;8.25;;;-0.80;99.90;;;;;;10241719;28;84056;-54
2022/01/11 06:47:38;;;;;;;18.77;8.15;;;-0.80;99.90;;;;;;10250680;28;85990;-55
2022/01/11 06:52:40;;;;;;;22.23;9.55;;;-1.00;99.90;;;;;;10241256;28;86140;-56
2022/01/11 06:57:41;;;;;;;18.30;8.13;;;-0.90;99.90;;;;;;10254505;28;86881;-56
2022/01/11 07:02:43;;;;;;;18.77;8.68;;;-0.90;99.90;;;;;;10254207;28;85880;-54
2022/01/11 07:08:03;;;;;;;14.68;7.63;;;-0.80;99.90;;;;;;10252159;28;84490;-56
2022/01/11 07:13:04;;;;;;;18.90;7.20;;;-0.80;99.90;;;;;;10255222;28;84798;-56
2022/01/11 07:18:09;;;;;;;11.38;6.70;;;-0.80;99.90;;;;;;10253974;28;86614;-56
2022/01/11 07:23:11;;;;;;;13.05;5.78;;;-0.70;99.90;;;;;;10259925;28;87049;-57
2022/01/11 07:28:15;;;;;;;14.85;6.75;;;-0.90;99.90;;;;;;10241315;28;85880;-56
2022/01/11 07:33:17;;;;;;;10.15;5.45;;;-0.90;99.90;;;;;;10242939;28;85031;-52
2022/01/11 07:38:23;;;;;;;15.57;6.65;;;-0.80;99.90;;;;;;10248360;28;85246;-56
2022/01/11 07:43:25;;;;;;;14.48;5.60;;;-0.80;99.90;;;;;;10247970;28;86006;-58
2022/01/11 07:48:28;;;;;;;20.33;6.40;;;-0.80;99.90;;;;;;10248952;28;87170;-59
2022/01/11 07:53:37;;;;;;;12.00;5.75;;;-0.70;99.90;;;;;;10247326;28;86805;-53
2022/01/11 07:58:44;;;;;;;11.35;5.53;;;-0.70;99.90;;;;;;10248191;28;86381;-54
2022/01/11 08:03:48;;;;;;;14.82;4.90;;;-0.60;99.90;;;;;;10248278;28;85976;-57
2022/01/11 08:09:07;;;;;;;14.80;5.07;;;-0.50;99.90;;;;;;10233634;28;86901;-57
2022/01/11 08:14:09;;;;;;;9.35;5.50;;;-0.40;99.90;;;;;;10245421;28;86085;-57
2022/01/11 08:19:13;;;;;;;15.35;5.78;;;-0.40;99.90;;;;;;10241788;28;85920;-56
2022/01/11 08:24:15;;;;;;;8.52;4.57;;;-0.30;99.90;;;;;;10235148;28;86917;-55
2022/01/11 08:29:18;;;;;;;10.23;4.75;;;-0.20;99.90;;;;;;10226435;28;86140;-58
2022/01/11 08:34:20;;;;;;;14.73;4.60;;;-0.10;99.90;;;;;;10225928;28;86143;-53
2022/01/11 08:39:21;;;;;;;9.15;5.53;;;0.00;99.90;;;;;;10245498;28;87067;-59
2022/01/11 08:44:24;;;;;;;8.05;5.00;;;0.30;99.90;;;;;;10246035;28;86693;-54
2022/01/11 08:49:26;;;;;;;15.57;6.07;;;1.70;99.90;;;;;;10244960;28;86686;-57
2022/01/11 08:54:27;;;;;;;13.30;6.40;;;2.80;99.90;;;;;;10244176;28;87010;-55
2022/01/11 08:59:32;;;;;;;15.10;6.65;;;3.30;99.90;;;;;;10245938;28;85950;-62
2022/01/11 09:04:33;;;;;;;12.23;6.60;;;3.40;99.90;;;;;;10246090;28;86138;-54
2022/01/11 09:09:47;;;;;;;12.48;5.53;;;3.70;99.90;;;;;;10245312;28;85022;-55
2022/01/11 09:14:49;;;;;;;11.55;5.07;;;3.80;1.00;;;;;;10244903;28;85808;-54
2022/01/11 09:19:52;;;;;;;11.00;6.03;;;3.50;1.00;;;;;;10244494;28;85915;-56
2022/01/11 09:24:56;;;;;;;11.70;5.20;;;3.70;1.00;;;;;;10245064;28;86908;-58
2022/01/11 09:30:00;;;;;;;9.07;4.93;;;4.10;1.00;;;;;;10242372;28;86217;-58
2022/01/11 09:35:06;;;;;;;12.88;5.70;;;4.00;1.00;;;;;;10228656;28;85015;-55
2022/01/11 09:40:10;;;;;;;12.23;4.95;;;4.50;1.00;;;;;;10234381;28;87061;-59
2022/01/11 09:45:13;;;;;;;12.98;5.45;;;4.80;1.00;;;;;;10227393;28;86854;-58
2022/01/11 09:50:21;;;;;;;11.23;4.85;;;5.20;1.00;;;;;;10229016;28;86613;-57
2022/01/11 09:55:32;;;;;;;9.15;5.15;;;5.90;1.00;;;;;;10235844;28;85560;-59
2022/01/11 10:00:35;;;;;;;13.73;5.65;;;7.00;1.00;;;;;;10228282;28;87035;-60
2022/01/11 10:05:52;;;;;;;8.90;4.90;;;7.70;1.00;;;;;;10236930;28;87816;-59
2022/01/11 10:10:56;;;;;;;8.93;4.28;;;8.20;99.90;;;;;;10244515;28;86007;-60
2022/01/11 10:16:17;;;;;;;8.95;4.88;;;8.40;99.90;;;;;;10244412;28;86058;-58
2022/01/11 10:21:39;;;;;;;9.77;4.57;;;9.10;55.10;;;;;;10244176;28;87094;-55
2022/01/11 10:26:44;;;;;;;11.73;4.20;;;9.50;1.00;;;;;;10227846;28;86746;-57
2022/01/11 10:31:46;;;;;;;7.93;4.10;;;9.00;1.00;;;;;;10243819;28;86008;-57
2022/01/11 10:36:47;;;;;;;11.23;5.15;;;8.30;1.00;;;;;;10243211;28;86018;-56
2022/01/11 10:41:52;;;;;;;9.18;4.38;;;7.70;12.20;;;;;;10225196;28;87218;-56
2022/01/11 10:47:02;;;;;;;7.75;4.10;;;7.00;99.90;;;;;;10242002;28;85795;-55
2022/01/11 10:52:21;;;;;;;8.15;4.05;;;6.70;99.90;;;;;;10240691;28;87168;-49
2022/01/11 10:57:37;;;;;;;7.60;4.15;;;6.70;99.90;;;;;;10249890;28;86811;-48
2022/01/11 11:02:40;;;;;;;11.30;4.57;;;6.30;1.00;;;;;;10249615;28;85795;-56
2022/01/11 11:07:59;;;;;;;9.57;3.42;;;6.10;1.00;;;;;;10250082;28;85920;-51
2022/01/11 11:13:02;;;;;;;7.88;3.95;;;6.00;1.00;;;;;;10249357;28;85767;-53
2022/01/11 11:18:05;;;;;;;5.82;3.50;;;5.80;1.00;;;;;;10248910;28;85986;-53
2022/01/11 11:23:12;;;;;;;8.02;3.33;;;5.60;1.00;;;;;;10249339;28;86631;-54
2022/01/11 11:28:13;;;;;;;9.23;3.65;;;5.50;1.00;;;;;;10251169;28;84323;-54
2022/01/11 11:33:16;;;;;;;6.40;2.85;;;5.50;1.00;;;;;;10249919;28;84732;-54
2022/01/11 11:38:20;;;;;;;9.80;3.83;;;5.70;1.00;;;;;;10250821;28;84769;-51
2022/01/11 11:43:21;;;;;;;3.95;2.60;;;5.50;1.00;;;;;;10242680;28;84812;-52
2022/01/11 11:48:24;;;;;;;5.28;2.90;;;5.50;1.00;;;;;;10241076;28;84959;-57
2022/01/11 11:53:26;;;;;;;5.90;2.97;;;5.50;1.00;;;;;;10243634;28;84621;-54
2022/01/11 11:58:28;;;;;;;5.18;2.92;;;5.50;1.00;;;;;;10250018;28;84918;-54
2022/01/11 12:03:29;;;;;;;7.32;2.92;;;5.60;1.00;;;;;;10249493;28;85641;-56
2022/01/11 12:08:32;;;;;;;6.43;3.30;;;5.60;1.00;;;;;;10246725;28;87577;-62
2022/01/11 12:13:51;;;;;;;7.57;3.30;;;5.60;1.00;;;;;;10244785;28;84593;-56
2022/01/11 12:19:02;;;;;;;5.85;2.80;;;5.70;1.00;;;;;;10231740;28;86947;-55
2022/01/11 12:24:03;;;;;;;7.22;2.78;;;5.80;1.00;;;;;;10247971;28;85923;-55
2022/01/11 12:29:10;;;;;;;7.00;2.92;;;6.20;1.00;;;;;;10248914;28;85251;-54
2022/01/11 12:34:12;;;;;;;8.23;4.75;;;6.50;1.00;;;;;;10220909;28;84300;-56
2022/01/11 12:39:13;;;;;;;7.18;3.13;;;6.60;1.00;;;;;;10239619;28;85186;-53
2022/01/11 12:44:26;;;;;;;6.32;3.47;;;6.70;1.00;;;;;;10230794;28;84853;-51
2022/01/11 12:49:28;;;;;;;5.13;2.40;;;6.70;1.00;;;;;;10239971;28;84755;-55
2022/01/11 12:54:38;;;;;;;10.48;3.20;;;6.80;1.00;;;;;;10207146;28;87227;-55
2022/01/11 12:59:41;;;;;;;6.03;2.80;;;6.90;1.00;;;;;;10215931;28;84600;-56
2022/01/11 13:04:51;;;;;;;4.25;2.45;;;7.00;1.00;;;;;;10261295;28;84191;-56
2022/01/11 13:10:17;;;;;;;6.53;3.05;;;6.90;1.00;;;;;;10287855;28;84852;-57
2022/01/11 13:15:37;;;;;;;6.43;3.45;;;7.00;1.00;;;;;;10300053;22;86801;-55
2022/01/11 13:20:39;;;;;;;9.23;3.22;;;6.90;1.00;;;;;;10283509;28;84558;-58
2022/01/11 13:26:02;;;;;;;5.72;2.55;;;6.90;1.00;;;;;;10280804;28;84196;-60
2022/01/11 13:31:07;;;;;;;7.75;3.30;;;6.80;1.00;;;;;;10286587;28;85184;-63
2022/01/11 13:36:11;;;;;;;4.70;2.80;;;6.70;1.00;;;;;;10289876;28;84070;-64
2022/01/11 13:41:13;;;;;;;8.57;3.80;;;6.70;1.00;;;;;;10292291;28;85226;-63
2022/01/11 13:46:24;;;;;;;6.55;2.88;;;6.60;1.00;;;;;;10286734;28;86163;-63
2022/01/11 13:51:32;;;;;;;5.38;3.15;;;6.60;1.00;;;;;;10284995;28;84922;-63
2022/01/11 13:56:40;;;;;;;5.10;2.95;;;6.60;1.00;;;;;;10287637;28;86788;-62
2022/01/11 14:01:44;;;;;;;9.32;4.38;;;6.60;1.00;;;;;;10288080;28;84075;-62
2022/01/11 14:06:47;;;;;;;5.25;2.80;;;6.40;1.00;;;;;;10287660;28;84247;-62
2022/01/11 14:12:05;;;;;;;11.15;4.00;;;6.50;1.00;;;;;;10268700;28;85753;-63
2022/01/11 14:17:12;;;;;;;8.50;3.08;;;6.40;1.00;;;;;;10271121;28;84259;-65
2022/01/11 14:22:13;;;;;;;8.32;3.72;;;6.50;1.00;;;;;;10286579;28;84123;-57
2022/01/11 14:27:26;;;;;;;7.53;3.78;;;6.40;1.00;;;;;;10286185;28;84948;-63
2022/01/11 14:32:28;;;;;;;5.90;3.10;;;6.40;1.00;;;;;;10291696;28;86684;-61
2022/01/11 14:37:31;;;;;;;8.93;3.83;;;6.50;1.00;;;;;;10292775;28;84997;-62
2022/01/11 14:42:33;;;;;;;8.63;4.20;;;6.50;1.00;;;;;;10293682;28;84334;-62
2022/01/11 14:47:52;;;;;;;8.30;4.32;;;6.50;1.00;;;;;;10293637;28;84909;-62
2022/01/11 14:52:57;;;;;;;8.90;4.15;;;6.50;1.00;;;;;;10294209;28;84132;-64
2022/01/11 14:58:02;;;;;;;7.82;4.25;;;6.30;1.00;;;;;;10296310;28;84722;-61
2022/01/11 15:03:06;;;;;;;9.00;4.60;;;6.20;1.00;;;;;;10293624;28;85111;-58
2022/01/11 15:08:07;;;;;;;12.48;5.20;;;6.20;1.00;;;;;;10291768;28;84218;-60
2022/01/11 15:13:20;;;;;;;13.10;4.70;;;6.10;1.00;;;;;;10291946;28;84938;-60
2022/01/11 15:18:21;;;;;;;10.25;4.95;;;6.10;1.00;;;;;;10292179;28;84336;-64
2022/01/11 15:23:22;;;;;;;15.63;5.20;;;6.20;1.00;;;;;;10273364;28;86034;-64
2022/01/11 15:28:22;;;;;;;10.73;4.35;;;6.10;1.00;;;;;;10289436;28;84257;-63
2022/01/11 15:33:23;;;;;;;7.82;4.80;;;6.00;1.00;;;;;;10295547;28;84266;-62
2022/01/11 15:38:24;;;;;;;9.50;4.82;;;6.00;1.00;;;;;;10289409;28;85854;-63
2022/01/11 15:43:27;;;;;;;12.63;5.18;;;6.00;1.00;;;;;;10289135;28;84945;-62
2022/01/11 15:48:28;;;;;;;8.70;4.95;;;5.90;1.00;;;;;;10285201;28;84245;-60
2022/01/11 15:53:29;;;;;;;9.73;5.03;;;5.80;1.00;;;;;;10290354;28;84894;-61
2022/01/11 15:58:29;;;;;;;10.27;4.70;;;5.70;1.00;;;;;;10290419;28;85029;-63
2022/01/11 16:03:30;;;;;;;12.77;4.75;;;5.50;1.00;;;;;;10285167;28;85978;-54
2022/01/11 16:08:31;;;;;;;8.00;4.60;;;5.40;1.00;;;;;;10290792;28;84449;-56
2022/01/11 16:13:31;;;;;;;13.13;4.85;;;5.30;1.00;;;;;;10288946;28;84348;-57
2022/01/11 16:18:33;;;;;;;11.95;5.03;;;5.20;1.00;;;;;;10288753;28;85662;-59
2022/01/11 16:23:34;;;;;;;8.82;4.55;;;5.20;1.00;;;;;;10289528;28;84214;-54
2022/01/11 16:28:34;;;;;;;11.60;4.78;;;5.20;1.00;;;;;;10288848;28;84973;-57
2022/01/11 16:33:36;;;;;;;13.15;4.85;;;5.20;1.00;;;;;;10288703;28;85279;-57
2022/01/11 16:38:39;;;;;;;13.80;5.32;;;5.10;1.00;;;;;;10272388;28;84167;-53
2022/01/11 16:43:41;;;;;;;15.80;6.22;;;5.10;1.00;;;;;;10285425;28;85025;-55
2022/01/11 16:48:41;;;;;;;14.23;6.10;;;5.00;1.00;;;;;;10294675;28;85355;-53
2022/01/11 16:53:42;;;;;;;16.08;5.90;;;5.00;1.00;;;;;;10283308;28;87318;-54
2022/01/11 16:58:43;;;;;;;11.40;5.78;;;4.90;1.00;;;;;;10284369;28;86122;-54
2022/01/11 17:03:43;;;;;;;14.02;5.70;;;4.80;1.00;;;;;;10285820;28;84294;-55
2022/01/11 17:08:44;;;;;;;12.15;6.35;;;4.70;1.00;;;;;;10286271;28;84834;-54
2022/01/11 17:13:45;;;;;;;15.10;6.75;;;4.60;1.00;;;;;;10280268;28;86077;-59
2022/01/11 17:18:48;;;;;;;12.98;6.65;;;4.40;1.00;;;;;;10284744;28;84663;-51
2022/01/11 17:23:48;;;;;;;14.15;6.60;;;4.30;1.00;;;;;;10290395;28;85415;-56
2022/01/11 17:28:49;;;;;;;15.15;6.50;;;4.30;1.00;;;;;;10292810;28;85003;-53
2022/01/11 17:33:51;;;;;;;19.27;7.13;;;4.30;1.00;;;;;;10292915;28;85035;-55
2022/01/11 17:38:52;;;;;;;15.35;7.15;;;4.20;1.00;;;;;;10296516;28;84280;-55
2022/01/11 17:43:53;;;;;;;19.52;8.70;;;4.10;1.00;;;;;;10265491;28;84462;-57
2022/01/11 17:48:54;;;;;;;19.38;8.95;;;4.00;2.00;;;;;;10280299;28;86532;-57
2022/01/11 17:53:55;;;;;;;17.27;7.95;;;3.90;1.00;;;;;;10286251;28;85214;-56
2022/01/11 17:58:57;;;;;;;19.48;8.10;;;3.90;8.00;;;;;;10291392;28;84711;-57
2022/01/11 18:03:58;;;;;;;17.90;8.25;;;4.00;24.50;;;;;;10310978;28;84995;-57
2022/01/11 18:08:59;;;;;;;15.13;6.65;;;4.00;7.90;;;;;;10327920;28;85000;-53
2022/01/11 18:13:59;;;;;;;16.13;6.65;;;3.90;1.40;;;;;;10327338;28;84980;-52
2022/01/11 18:19:00;;;;;;;19.02;8.25;;;3.90;1.00;;;;;;10327959;28;84745;-56
2022/01/11 18:24:02;;;;;;;12.90;6.18;;;3.90;1.00;;;;;;10326769;28;84232;-56
2022/01/11 18:29:03;;;;;;;15.73;7.05;;;3.70;2.70;;;;;;10326986;28;84386;-51
2022/01/11 18:34:05;;;;;;;11.80;5.63;;;3.70;24.60;;;;;;10326419;28;84920;-54
2022/01/11 18:39:06;;;;;;;12.88;6.13;;;3.70;26.00;;;;;;10308197;28;85330;-53
2022/01/11 18:44:07;;;;;;;14.80;5.68;;;3.70;24.00;;;;;;10280421;28;86054;-49
2022/01/11 18:49:07;;;;;;;19.25;7.50;;;3.70;44.40;;;;;;10284499;28;84155;-55
2022/01/11 18:54:11;;;;;;;12.52;6.22;;;3.80;32.40;;;;;;10292292;28;84691;-58
2022/01/11 18:59:12;;;;;;;12.80;6.47;;;3.80;26.80;;;;;;10291092;28;86347;-55
2022/01/11 19:04:12;;;;;;;16.55;7.30;;;3.80;8.90;;;;;;10300389;28;84529;-54
2022/01/11 19:09:13;;;;;;;15.85;7.80;;;3.80;13.90;;;;;;10279150;28;85802;-55
2022/01/11 19:14:14;;;;;;;16.17;7.70;;;3.80;1.00;;;;;;10293543;22;84980;-53
2022/01/11 19:19:20;;;;;;;14.02;6.53;;;3.60;25.80;;;;;;10270854;28;84186;-53
2022/01/11 19:24:21;;;;;;;13.35;6.75;;;3.50;44.20;;;;;;10250869;28;84673;-53
2022/01/11 19:29:22;;;;;;;11.30;5.97;;;3.50;38.30;;;;;;10251171;28;85001;-55
2022/01/11 19:34:24;;;;;;;11.60;5.90;;;3.50;75.60;;;;;;10249059;28;84980;-53
2022/01/11 19:39:24;;;;;;;16.42;6.50;;;3.60;29.20;;;;;;10250494;28;83987;-54
2022/01/11 19:44:25;;;;;;;15.68;6.22;;;3.80;1.00;;;;;;10250611;28;84934;-53
2022/01/11 19:49:26;;;;;;;10.73;4.55;;;3.90;1.00;;;;;;10250526;28;84098;-55
2022/01/11 19:54:27;;;;;;;7.57;4.00;;;4.00;1.00;;;;;;10250355;28;84178;-55
2022/01/11 19:59:27;;;;;;;15.25;4.70;;;4.00;1.00;;;;;;10249598;28;84035;-52
2022/01/11 20:04:28;;;;;;;7.93;4.18;;;4.00;1.00;;;;;;10249864;28;85162;-55
2022/01/11 20:09:29;;;;;;;5.97;3.88;;;4.10;1.00;;;;;;10249476;28;85092;-54
2022/01/11 20:14:29;;;;;;;12.98;3.90;;;4.00;1.00;;;;;;10248956;28;86160;-52
2022/01/11 20:19:32;;;;;;;7.57;4.07;;;4.00;1.00;;;;;;10249119;28;84766;-51
2022/01/11 20:29:58;;;;;;;12.10;4.38;;;4.00;1.00;;;;;;10248768;28;84769;-54
2022/01/11 20:34:58;;;;;;;5.82;3.00;;;4.00;1.00;;;;;;10251788;28;84776;-53
2022/01/11 20:40:00;;;;;;;7.90;3.85;;;4.00;1.00;;;;;;10249662;28;85580;-55
2022/01/11 20:45:01;;;;;;;9.43;4.13;;;4.00;1.00;;;;;;10248913;28;84226;-56
2022/01/11 20:50:29;;;;;;;8.98;4.10;;;4.00;1.00;;;;;;10248372;28;84487;-55
2022/01/11 20:55:30;;;;;;;8.57;4.00;;;3.90;1.00;;;;;;10273067;28;84513;-57
2022/01/11 21:00:31;;;;;;;8.90;3.15;;;3.90;1.00;;;;;;10288737;28;84170;-54
2022/01/11 21:05:32;;;;;;;11.68;4.20;;;3.90;1.00;;;;;;10278303;28;85014;-54
2022/01/11 21:10:33;;;;;;;9.38;3.25;;;3.90;1.00;;;;;;10274236;28;84901;-53
2022/01/11 21:15:44;;;;;;;6.35;2.75;;;4.00;1.00;;;;;;10284492;28;84213;-54
2022/01/11 21:20:49;;;;;;;7.53;2.83;;;4.00;1.00;;;;;;10279592;28;84349;-52
2022/01/11 21:25:52;;;;;;;4.70;2.67;;;4.00;1.00;;;;;;10286060;28;84204;-52
2022/01/11 21:30:54;;;;;;;4.53;2.65;;;4.10;1.00;;;;;;10242950;28;84262;-50
2022/01/11 21:35:55;;;;;;;5.47;2.40;;;4.10;1.00;;;;;;10241900;28;85939;-52
2022/01/11 21:40:57;;;;;;;4.43;2.58;;;4.00;1.00;;;;;;10246570;28;84858;-54
2022/01/11 21:45:57;;;;;;;5.78;2.90;;;4.00;1.00;;;;;;10245327;28;84206;-52
2022/01/11 21:50:58;;;;;;;8.18;3.20;;;4.00;1.00;;;;;;10240290;28;84218;-54
2022/01/11 21:55:59;;;;;;;7.72;3.33;;;4.00;1.00;;;;;;10245666;28;84712;-49
2022/01/11 22:01:00;;;;;;;6.10;3.10;;;3.90;1.00;;;;;;10245956;28;85068;-52
2022/01/11 22:06:01;;;;;;;6.93;3.13;;;3.90;1.00;;;;;;10245657;28;84926;-54
2022/01/11 22:11:01;;;;;;;5.38;2.53;;;3.80;1.00;;;;;;10258730;28;84963;-54
2022/01/11 22:21:06;;;;;;;5.28;2.60;;;3.70;1.00;;;;;;10245781;28;84993;-54
2022/01/11 22:26:06;;;;;;;5.22;2.58;;;3.70;1.00;;;;;;10245711;28;84131;-50
2022/01/11 22:31:07;;;;;;;4.97;2.92;;;3.60;1.00;;;;;;10246029;28;84832;-50
2022/01/11 22:36:09;;;;;;;5.47;3.15;;;3.60;1.00;;;;;;10245498;28;84765;-51
2022/01/11 22:41:11;;;;;;;8.07;3.67;;;3.60;1.00;;;;;;10245941;28;84156;-54
2022/01/11 22:46:12;;;;;;;6.95;3.03;;;3.70;1.00;;;;;;10245427;28;84324;-54
2022/01/11 22:51:13;;;;;;;9.55;3.15;;;3.80;1.00;;;;;;10250740;28;84926;-53
2022/01/11 22:56:14;;;;;;;11.60;3.45;;;3.80;1.00;;;;;;10252922;28;84989;-54
2022/01/11 23:01:17;;;;;;;8.35;3.17;;;3.90;1.00;;;;;;10252515;28;84651;-53
2022/01/11 23:06:17;;;;;;;5.90;2.78;;;4.00;1.00;;;;;;10252035;28;85011;-56
2022/01/11 23:11:18;;;;;;;5.30;2.70;;;3.90;1.00;;;;;;10252463;28;83959;-53
2022/01/11 23:16:19;;;;;;;8.15;3.25;;;3.90;1.00;;;;;;10251146;28;84930;-52
2022/01/11 23:21:19;;;;;;;5.30;2.40;;;3.90;1.00;;;;;;10251892;28;84258;-52
2022/01/11 23:26:20;;;;;;;6.55;2.67;;;4.00;1.00;;;;;;10251339;28;84364;-52
2022/01/11 23:31:20;;;;;;;8.00;3.42;;;4.00;1.00;;;;;;10251988;28;84103;-54
2022/01/11 23:36:23;;;;;;;4.35;2.00;;;4.00;1.00;;;;;;10266326;28;84710;-54
2022/01/11 23:41:40;;;;;;;5.60;2.58;;;4.00;1.00;;;;;;10251168;28;84970;-56
2022/01/11 23:46:40;;;;;;;7.70;2.58;;;4.10;1.00;;;;;;10250463;28;84869;-55
2022/01/11 23:51:41;;;;;;;5.38;2.97;;;4.00;1.00;;;;;;10250670;28;84015;-55
2022/01/11 23:56:43;;;;;;;7.15;2.95;;;4.00;1.00;;;;;;10249707;28;84230;-51
